createdAt,value
2023-02-11T00:00:11.631Z,98660.09
2023-02-11T00:02:38.276Z,98654.19
2023-02-11T00:05:05.259Z,98657.91
2023-02-11T00:07:33.840Z,98659.97
2023-02-11T00:10:00.241Z,98657.25
2023-02-11T00:12:26.625Z,98646.06
2023-02-11T00:14:52.999Z,98640.94
2023-02-11T00:17:19.392Z,98646.81
2023-02-11T00:19:49.636Z,98651.09
2023-02-11T00:22:16.283Z,98650.91
2023-02-11T00:24:42.933Z,98644.13
2023-02-11T00:27:09.447Z,98646.47
2023-02-11T00:29:37.164Z,98637.44
2023-02-11T00:32:05.240Z,98637.44
2023-02-11T00:34:32.622Z,98640.94
2023-02-11T00:36:59.216Z,98645.69
2023-02-11T00:39:25.936Z,98649.25
2023-02-11T00:41:52.416Z,98629.81
2023-02-11T00:44:19.157Z,98628.97
2023-02-11T00:46:45.660Z,98630.44
2023-02-11T00:49:12.072Z,98635.06
2023-02-11T00:51:38.506Z,98638.66
2023-02-11T00:54:05.185Z,98643.03
2023-02-11T00:56:32.141Z,98643.91
2023-02-11T00:58:58.501Z,98645.13
2023-02-11T01:01:25.156Z,98632.06
2023-02-11T01:03:51.662Z,98634.31
2023-02-11T01:06:18.351Z,98636.38
2023-02-11T01:08:45.066Z,98644.41
2023-02-11T01:11:21.421Z,98638.69
2023-02-11T01:13:49.237Z,98640.31
2023-02-11T01:16:15.652Z,98632.66
2023-02-11T01:18:44.282Z,98633.78
2023-02-11T01:21:11.438Z,98634.22
2023-02-11T01:23:37.837Z,98616.91
2023-02-11T01:26:04.717Z,98618.78
2023-02-11T01:28:31.676Z,98605.72
2023-02-11T01:30:59.838Z,98606.47
2023-02-11T01:33:26.356Z,98610.47
2023-02-11T01:35:53.085Z,98618.25
2023-02-11T01:38:22.793Z,98612.69
2023-02-11T01:41:00.925Z,98603.91
2023-02-11T01:43:33.291Z,98592.88
2023-02-11T01:46:04.884Z,98580.63
2023-02-11T01:48:36.160Z,98582.06
2023-02-11T01:51:10.990Z,98576.03
2023-02-11T01:53:57.190Z,98571.41
2023-02-11T01:56:44.468Z,98570.13
2023-02-11T01:59:20.556Z,98560.44
2023-02-11T02:01:51.300Z,98563.78
2023-02-11T02:04:19.679Z,98564.91
2023-02-11T02:06:51.945Z,98564.66
2023-02-11T02:09:28.989Z,98559.78
2023-02-11T02:11:55.678Z,98546.94
2023-02-11T02:14:22.106Z,98552.06
2023-02-11T02:16:48.755Z,98541.38
2023-02-11T02:19:52.619Z,98553.91
2023-02-11T02:23:01.436Z,98548.94
2023-02-11T02:25:59.817Z,98563.97
2023-02-11T02:28:38.331Z,98560.13
2023-02-11T02:31:23.528Z,98564.78
2023-02-11T02:34:00.577Z,98562.28
2023-02-11T02:36:37.748Z,98567.16
2023-02-11T02:39:13.154Z,98556.00
2023-02-11T02:41:40.975Z,98561.59
2023-02-11T02:44:08.193Z,98570.13
2023-02-11T02:46:36.465Z,98568.63
2023-02-11T02:49:06.329Z,98567.63
2023-02-11T02:52:11.720Z,98562.75
2023-02-11T02:55:04.509Z,98562.28
2023-02-11T02:57:46.070Z,98556.94
2023-02-11T03:00:23.097Z,98560.44
2023-02-11T03:03:00.234Z,98557.06
2023-02-11T03:05:49.095Z,98554.56
2023-02-11T03:08:30.791Z,98555.59
2023-02-11T03:10:58.896Z,98551.47
2023-02-11T03:13:31.908Z,98538.06
2023-02-11T03:16:01.862Z,98539.69
2023-02-11T03:18:30.591Z,98542.34
2023-02-11T03:20:58.021Z,98542.72
2023-02-11T03:23:32.936Z,98534.34
2023-02-11T03:26:06.047Z,98537.13
2023-02-11T03:28:38.038Z,98533.44
2023-02-11T03:31:13.739Z,98537.13
2023-02-11T03:33:51.728Z,98542.00
2023-02-11T03:36:34.334Z,98551.88
2023-02-11T03:39:03.432Z,98545.38
2023-02-11T03:41:31.761Z,98530.69
2023-02-11T03:43:59.547Z,98543.97
2023-02-11T03:46:33.126Z,98543.06
2023-02-11T03:49:04.994Z,98536.91
2023-02-11T03:51:33.198Z,98542.53
2023-02-11T03:54:04.004Z,98546.81
2023-02-11T03:56:35.148Z,98534.38
2023-02-11T03:59:01.808Z,98531.00
2023-02-11T04:01:28.275Z,98533.25
2023-02-11T04:03:54.691Z,98535.50
2023-02-11T04:06:21.123Z,98538.00
2023-02-11T04:08:47.554Z,98528.59
2023-02-11T04:11:13.893Z,98536.97
2023-02-11T04:13:40.233Z,98530.94
2023-02-11T04:16:06.899Z,98537.72
2023-02-11T04:18:33.367Z,98536.09
2023-02-11T04:20:59.745Z,98536.25
2023-02-11T04:23:26.246Z,98523.00
2023-02-11T04:25:52.801Z,98515.72
2023-02-11T04:28:19.362Z,98519.50
2023-02-11T04:30:46.134Z,98506.84
2023-02-11T04:33:12.556Z,98514.00
2023-02-11T04:35:39.013Z,98515.78
2023-02-11T04:38:05.392Z,98525.78
2023-02-11T04:40:31.789Z,98519.31
2023-02-11T04:42:58.207Z,98517.19
2023-02-11T04:45:24.741Z,98511.44
2023-02-11T04:47:51.142Z,98512.44
2023-02-11T04:50:17.772Z,98505.81
2023-02-11T04:52:44.327Z,98504.19
2023-02-11T04:55:12.128Z,98500.78
2023-02-11T04:57:38.494Z,98494.31
2023-02-11T05:00:06.144Z,98489.03
2023-02-11T05:02:33.894Z,98510.94
2023-02-11T05:05:00.261Z,98492.50
2023-02-11T05:07:26.783Z,98507.97
2023-02-11T05:09:53.181Z,98493.56
2023-02-11T05:12:19.644Z,98492.53
2023-02-11T05:14:46.095Z,98499.16
2023-02-11T05:17:12.431Z,98511.59
2023-02-11T05:19:38.885Z,98515.09
2023-02-11T05:22:05.315Z,98510.81
2023-02-11T05:24:32.499Z,98513.31
2023-02-11T05:26:59.176Z,98515.63
2023-02-11T05:29:25.584Z,98506.50
2023-02-11T05:31:52.433Z,98505.63
2023-02-11T05:34:18.825Z,98500.16
2023-02-11T05:36:45.266Z,98490.88
2023-02-11T05:39:11.722Z,98484.25
2023-02-11T05:41:38.194Z,98453.91
2023-02-11T05:44:04.706Z,98465.31
2023-02-11T05:46:31.159Z,98469.84
2023-02-11T05:48:57.788Z,98465.97
2023-02-11T05:51:25.221Z,98465.47
2023-02-11T05:53:51.669Z,98467.47
2023-02-11T05:56:18.061Z,98477.00
2023-02-11T05:58:44.410Z,98476.88
2023-02-11T06:01:10.848Z,98477.78
2023-02-11T06:03:37.231Z,98474.50
2023-02-11T06:06:03.888Z,98478.16
2023-02-11T06:08:30.373Z,98475.16
2023-02-11T06:10:56.745Z,98479.41
2023-02-11T06:13:23.155Z,98481.28
2023-02-11T06:16:00.746Z,98463.75
2023-02-11T06:18:27.581Z,98452.59
2023-02-11T06:20:54.090Z,98449.25
2023-02-11T06:23:20.901Z,98444.34
2023-02-11T06:25:47.562Z,98451.63
2023-02-11T06:28:14.006Z,98460.91
2023-02-11T06:30:40.534Z,98463.28
2023-02-11T06:33:08.031Z,98466.16
2023-02-11T06:35:35.312Z,98465.44
2023-02-11T06:38:01.745Z,98467.94
2023-02-11T06:40:28.137Z,98466.69
2023-02-11T06:42:54.471Z,98459.28
2023-02-11T06:45:20.920Z,98463.44
2023-02-11T06:47:47.488Z,98459.28
2023-02-11T06:50:14.375Z,98482.84
2023-02-11T06:52:40.969Z,98474.94
2023-02-11T06:55:07.528Z,98476.09
2023-02-11T06:57:33.913Z,98465.19
2023-02-11T07:00:00.330Z,98452.66
2023-02-11T07:02:26.734Z,98466.44
2023-02-11T07:04:53.207Z,98474.94
2023-02-11T07:07:20.598Z,98471.09
2023-02-11T07:09:46.935Z,98462.19
2023-02-11T07:12:13.337Z,98465.19
2023-02-11T07:14:40.093Z,98449.38
2023-02-11T07:17:06.470Z,98446.28
2023-02-11T07:19:32.802Z,98456.28
2023-02-11T07:21:59.200Z,98457.28
2023-02-11T07:24:25.602Z,98469.97
2023-02-11T07:26:53.332Z,98464.81
2023-02-11T07:29:19.762Z,98466.94
2023-02-11T07:31:46.234Z,98463.19
2023-02-11T07:34:12.823Z,98459.41
2023-02-11T07:36:39.196Z,98455.16
2023-02-11T07:39:05.611Z,98452.13
2023-02-11T07:41:32.373Z,98461.53
2023-02-11T07:43:58.881Z,98468.66
2023-02-11T07:46:27.656Z,98471.03
2023-02-11T07:48:55.099Z,98485.09
2023-02-11T07:51:25.076Z,98482.22
2023-02-11T07:53:52.415Z,98496.13
2023-02-11T07:56:20.189Z,98479.69
2023-02-11T07:58:47.039Z,98475.66
2023-02-11T08:01:28.212Z,98469.72
2023-02-11T08:03:56.544Z,98463.53
2023-02-11T08:06:24.991Z,98463.53
2023-02-11T08:08:52.257Z,98471.03
2023-02-11T08:11:21.875Z,98470.50
2023-02-11T08:13:48.408Z,98477.41
2023-02-11T08:16:21.578Z,98483.03
2023-02-11T08:18:49.060Z,98475.97
2023-02-11T08:21:18.162Z,98474.69
2023-02-11T08:23:46.045Z,98459.84
2023-02-11T08:26:15.558Z,98467.59
2023-02-11T08:28:44.800Z,98469.69
2023-02-11T08:31:14.146Z,98472.88
2023-02-11T08:33:41.111Z,98481.88
2023-02-11T08:36:12.222Z,98476.44
2023-02-11T08:38:38.698Z,98479.38
2023-02-11T08:41:05.608Z,98487.09
2023-02-11T08:43:33.419Z,98489.56
2023-02-11T08:46:02.184Z,98489.72
2023-02-11T08:48:29.369Z,98486.78
2023-02-11T08:50:56.743Z,98478.88
2023-02-11T08:53:23.471Z,98497.94
2023-02-11T08:55:52.096Z,98499.50
2023-02-11T08:58:19.331Z,98505.19
2023-02-11T09:00:46.284Z,98507.69
2023-02-11T09:03:14.580Z,98505.41
2023-02-11T09:05:43.345Z,98492.56
2023-02-11T09:08:09.706Z,98493.78
2023-02-11T09:10:36.336Z,98498.25
2023-02-11T09:13:02.948Z,98483.25
2023-02-11T09:15:29.558Z,98496.75
2023-02-11T09:17:56.161Z,98496.31
2023-02-11T09:20:23.148Z,98492.47
2023-02-11T09:22:49.975Z,98490.06
2023-02-11T09:25:16.450Z,98502.09
2023-02-11T09:27:42.803Z,98506.94
2023-02-11T09:30:09.810Z,98492.13
2023-02-11T09:32:36.200Z,98489.19
2023-02-11T09:35:02.618Z,98486.00
2023-02-11T09:37:29.105Z,98493.22
2023-02-11T09:39:55.740Z,98482.06
2023-02-11T09:42:49.830Z,98488.09
2023-02-11T09:45:28.377Z,98480.72
2023-02-11T09:48:21.759Z,98480.50
2023-02-11T09:50:57.724Z,98490.69
2023-02-11T09:53:26.786Z,98485.31
2023-02-11T09:55:56.393Z,98481.47
2023-02-11T09:58:27.468Z,98487.13
2023-02-11T10:01:49.241Z,98493.06
2023-02-11T10:05:01.453Z,98489.78
2023-02-11T10:08:09.998Z,98486.72
2023-02-11T10:10:47.787Z,98490.44
2023-02-11T10:13:33.280Z,98494.34
2023-02-11T10:16:14.875Z,98500.28
2023-02-11T10:19:11.190Z,98488.34
2023-02-11T10:21:47.697Z,98487.75
2023-02-11T10:24:17.004Z,98485.34
2023-02-11T10:26:45.590Z,98481.38
2023-02-11T10:29:18.040Z,98480.50
2023-02-11T10:31:46.139Z,98486.53
2023-02-11T10:34:14.212Z,98477.06
2023-02-11T10:36:43.234Z,98473.41
2023-02-11T10:39:15.761Z,98463.63
2023-02-11T10:41:45.990Z,98462.69
2023-02-11T10:44:27.907Z,98457.81
2023-02-11T10:46:56.290Z,98454.94
2023-02-11T10:49:44.152Z,98449.06
2023-02-11T10:52:21.198Z,98444.19
2023-02-11T10:55:06.056Z,98451.78
2023-02-11T10:57:36.647Z,98451.88
2023-02-11T11:00:29.357Z,98453.81
2023-02-11T11:02:58.589Z,98441.47
2023-02-11T11:05:32.264Z,98442.56
2023-02-11T11:08:01.827Z,98441.69
2023-02-11T11:10:37.428Z,98442.09
2023-02-11T11:13:03.911Z,98428.88
2023-02-11T11:15:32.023Z,98429.38
2023-02-11T11:18:21.531Z,98426.94
2023-02-11T11:21:01.328Z,98416.22
2023-02-11T11:23:30.592Z,98421.00
2023-02-11T11:26:09.821Z,98438.03
2023-02-11T11:28:38.816Z,98436.56
2023-02-11T11:31:12.860Z,98448.94
2023-02-11T11:33:43.497Z,98447.38
2023-02-11T11:36:13.696Z,98435.03
2023-02-11T11:38:52.378Z,98436.28
2023-02-11T11:41:28.390Z,98432.84
2023-02-11T11:43:59.047Z,98426.81
2023-02-11T11:46:34.789Z,98422.63
2023-02-11T11:49:24.648Z,98419.19
2023-02-11T11:52:10.096Z,98417.84
2023-02-11T11:54:38.202Z,98405.94
2023-02-11T11:57:16.077Z,98410.22
2023-02-11T11:59:42.549Z,98421.50
2023-02-11T12:02:21.060Z,98409.97
2023-02-11T12:05:03.677Z,98405.31
2023-02-11T12:07:57.378Z,98419.28
2023-02-11T12:10:53.175Z,98407.47
2023-02-11T12:13:33.587Z,98400.44
2023-02-11T12:16:36.483Z,98392.19
2023-02-11T12:19:41.038Z,98385.06
2023-02-11T12:22:33.882Z,98397.25
2023-02-11T12:25:20.813Z,98402.84
2023-02-11T12:27:53.531Z,98388.63
2023-02-11T12:30:29.070Z,98380.91
2023-02-11T12:33:12.451Z,98374.13
2023-02-11T12:36:06.616Z,98379.25
2023-02-11T12:38:54.338Z,98369.56
2023-02-11T12:41:43.532Z,98368.63
2023-02-11T12:44:35.639Z,98356.63
2023-02-11T12:47:19.624Z,98354.53
2023-02-11T12:49:59.940Z,98362.09
2023-02-11T12:52:39.241Z,98355.69
2023-02-11T12:55:25.566Z,98364.09
2023-02-11T12:57:54.187Z,98346.28
2023-02-11T13:00:27.515Z,98346.63
2023-02-11T13:02:59.612Z,98341.50
2023-02-11T13:05:40.663Z,98339.84
2023-02-11T13:08:24.999Z,98339.78
2023-02-11T13:11:02.895Z,98341.06
2023-02-11T13:13:35.598Z,98335.69
2023-02-11T13:16:13.285Z,98324.91
2023-02-11T13:18:56.224Z,98349.56
2023-02-11T13:21:41.568Z,98352.19
2023-02-11T13:24:25.585Z,98354.81
2023-02-11T13:27:18.922Z,98362.56
2023-02-11T13:30:10.960Z,98357.56
2023-02-11T13:32:55.603Z,98355.47
2023-02-11T13:35:32.572Z,98369.81
2023-02-11T13:38:00.254Z,98355.31
2023-02-11T13:40:30.101Z,98357.34
2023-02-11T13:42:59.335Z,98358.09
2023-02-11T13:45:49.369Z,98362.97
2023-02-11T13:48:22.920Z,98358.69
2023-02-11T13:50:53.176Z,98363.59
2023-02-11T13:53:20.488Z,98356.25
2023-02-11T13:55:49.700Z,98359.94
2023-02-11T13:58:37.023Z,98354.53
2023-02-11T14:01:03.660Z,98357.78
2023-02-11T14:03:51.897Z,98360.56
2023-02-11T14:06:41.526Z,98361.97
2023-02-11T14:09:34.869Z,98361.78
2023-02-11T14:12:24.012Z,98358.72
2023-02-11T14:15:13.331Z,98349.44
2023-02-11T14:17:39.702Z,98344.38
2023-02-11T14:20:33.545Z,98336.94
2023-02-11T14:22:59.981Z,98332.91
2023-02-11T14:25:27.057Z,98338.16
2023-02-11T14:28:11.382Z,98342.53
2023-02-11T14:30:49.267Z,98334.91
2023-02-11T14:33:27.079Z,98343.47
2023-02-11T14:36:05.662Z,98333.25
2023-02-11T14:39:01.328Z,98338.00
2023-02-11T14:41:30.502Z,98343.75
2023-02-11T14:44:04.670Z,98343.66
2023-02-11T14:46:35.317Z,98342.00
2023-02-11T14:49:05.280Z,98342.97
2023-02-11T14:51:36.276Z,98349.88
2023-02-11T14:54:16.886Z,98342.28
2023-02-11T14:56:44.428Z,98342.19
2023-02-11T14:59:20.500Z,98345.00
2023-02-11T15:01:51.637Z,98339.59
2023-02-11T15:04:27.235Z,98338.97
2023-02-11T15:06:54.223Z,98339.94
2023-02-11T15:09:38.846Z,98340.63
2023-02-11T15:12:06.897Z,98340.88
2023-02-11T15:14:35.612Z,98328.47
2023-02-11T15:17:08.469Z,98327.41
2023-02-11T15:19:41.202Z,98327.50
2023-02-11T15:22:21.851Z,98324.13
2023-02-11T15:25:06.369Z,98335.47
2023-02-11T15:27:59.244Z,98336.53
2023-02-11T15:30:32.268Z,98340.97
2023-02-11T15:33:02.718Z,98344.13
2023-02-11T15:35:41.115Z,98350.66
2023-02-11T15:38:12.440Z,98358.19
2023-02-11T15:40:38.835Z,98359.69
2023-02-11T15:43:07.761Z,98355.72
2023-02-11T15:45:41.222Z,98354.91
2023-02-11T15:48:20.136Z,98353.53
2023-02-11T15:51:01.479Z,98349.09
2023-02-11T15:53:30.273Z,98350.28
2023-02-11T15:56:19.926Z,98349.25
2023-02-11T15:58:49.314Z,98354.56
2023-02-11T16:01:16.048Z,98353.47
2023-02-11T16:03:43.756Z,98348.56
2023-02-11T16:06:16.342Z,98352.78
2023-02-11T16:08:43.164Z,98350.84
2023-02-11T16:11:25.516Z,98361.50
2023-02-11T16:13:52.030Z,98360.44
2023-02-11T16:16:22.334Z,98359.88
2023-02-11T16:19:04.671Z,98360.44
2023-02-11T16:21:39.590Z,98360.75
2023-02-11T16:24:08.168Z,98371.97
2023-02-11T16:26:39.120Z,98379.31
2023-02-11T16:29:10.214Z,98383.38
2023-02-11T16:31:39.972Z,98378.16
2023-02-11T16:34:13.757Z,98383.25
2023-02-11T16:36:40.206Z,98383.47
2023-02-11T16:39:06.637Z,98392.50
2023-02-11T16:41:33.030Z,98392.50
2023-02-11T16:43:59.447Z,98392.56
2023-02-11T16:46:27.315Z,98407.44
2023-02-11T16:48:55.758Z,98403.72
2023-02-11T16:51:22.350Z,98408.47
2023-02-11T16:53:48.738Z,98410.03
2023-02-11T16:56:17.017Z,98412.59
2023-02-11T16:58:44.398Z,98406.28
2023-02-11T17:01:13.927Z,98411.28
2023-02-11T17:03:41.078Z,98411.13
2023-02-11T17:06:10.196Z,98416.00
2023-02-11T17:08:37.650Z,98417.69
2023-02-11T17:11:04.340Z,98420.78
2023-02-11T17:13:31.139Z,98427.50
2023-02-11T17:15:57.857Z,98425.50
2023-02-11T17:18:24.404Z,98429.41
2023-02-11T17:20:50.856Z,98442.78
2023-02-11T17:23:17.188Z,98442.19
2023-02-11T17:25:43.575Z,98434.94
2023-02-11T17:28:12.024Z,98431.56
2023-02-11T17:30:41.220Z,98439.81
2023-02-11T17:33:07.653Z,98441.66
2023-02-11T17:35:34.016Z,98432.28
2023-02-11T17:38:01.357Z,98435.53
2023-02-11T17:40:27.797Z,98429.31
2023-02-11T17:42:54.182Z,98442.88
2023-02-11T17:45:22.351Z,98452.16
2023-02-11T17:47:49.425Z,98448.50
2023-02-11T17:50:16.064Z,98451.81
2023-02-11T17:52:42.757Z,98452.16
2023-02-11T17:55:09.294Z,98456.19
2023-02-11T17:57:35.745Z,98462.16
2023-02-11T18:00:02.577Z,98455.13
2023-02-11T18:02:28.957Z,98456.47
2023-02-11T18:04:57.491Z,98461.44
2023-02-11T18:07:25.204Z,98458.81
2023-02-11T18:09:51.815Z,98454.53
2023-02-11T18:12:25.091Z,98465.75
2023-02-11T18:14:56.832Z,98465.22
2023-02-11T18:17:24.653Z,98465.91
2023-02-11T18:19:51.073Z,98472.56
2023-02-11T18:22:17.876Z,98469.16
2023-02-11T18:24:44.255Z,98462.31
2023-02-11T18:27:10.712Z,98462.31
2023-02-11T18:29:37.090Z,98471.50
2023-02-11T18:32:03.522Z,98470.09
2023-02-11T18:34:30.036Z,98466.88
2023-02-11T18:36:56.961Z,98475.09
2023-02-11T18:39:24.211Z,98466.09
2023-02-11T18:41:54.393Z,98467.03
2023-02-11T18:44:22.946Z,98464.50
2023-02-11T18:46:49.698Z,98468.00
2023-02-11T18:49:16.197Z,98470.63
2023-02-11T18:51:42.982Z,98472.56
2023-02-11T18:54:09.422Z,98473.41
2023-02-11T18:56:35.849Z,98471.84
2023-02-11T18:59:02.572Z,98487.84
2023-02-11T19:01:31.043Z,98483.41
2023-02-11T19:03:59.521Z,98482.41
2023-02-11T19:06:32.667Z,98482.25
2023-02-11T19:09:02.985Z,98484.38
2023-02-11T19:11:50.311Z,98481.91
2023-02-11T19:14:20.024Z,98476.75
2023-02-11T19:16:47.542Z,98481.63
2023-02-11T19:19:14.085Z,98481.75
2023-02-11T19:21:43.649Z,98489.25
2023-02-11T19:24:10.661Z,98494.41
2023-02-11T19:26:37.432Z,98503.44
2023-02-11T19:29:05.925Z,98497.38
2023-02-11T19:31:33.054Z,98502.28
2023-02-11T19:34:01.177Z,98499.91
2023-02-11T19:36:27.855Z,98506.59
2023-02-11T19:38:54.375Z,98509.03
2023-02-11T19:41:23.045Z,98500.78
2023-02-11T19:43:53.378Z,98510.84
2023-02-11T19:46:23.888Z,98501.16
2023-02-11T19:48:51.455Z,98506.13
2023-02-11T19:51:18.125Z,98495.47
2023-02-11T19:53:45.460Z,98492.56
2023-02-11T19:56:13.228Z,98490.50
2023-02-11T19:58:40.493Z,98492.84
2023-02-11T20:01:12.806Z,98481.22
2023-02-11T20:03:42.344Z,98484.53
2023-02-11T20:06:12.878Z,98478.59
2023-02-11T20:08:39.861Z,98485.78
2023-02-11T20:11:10.262Z,98481.28
2023-02-11T20:13:38.321Z,98481.91
2023-02-11T20:16:12.359Z,98489.69
2023-02-11T20:18:39.683Z,98471.31
2023-02-11T20:21:15.942Z,98478.03
2023-02-11T20:23:42.520Z,98475.16
2023-02-11T20:26:14.917Z,98485.75
2023-02-11T20:28:41.946Z,98486.25
2023-02-11T20:31:10.960Z,98505.16
2023-02-11T20:33:37.911Z,98501.47
2023-02-11T20:36:08.689Z,98502.34
2023-02-11T20:38:35.170Z,98499.81
2023-02-11T20:41:07.902Z,98506.44
2023-02-11T20:43:36.935Z,98504.09
2023-02-11T20:46:05.363Z,98508.22
2023-02-11T20:48:32.450Z,98498.25
2023-02-11T20:51:07.433Z,98505.94
2023-02-11T20:53:35.867Z,98501.06
2023-02-11T20:56:08.586Z,98494.50
2023-02-11T20:58:36.089Z,98502.81
2023-02-11T21:01:26.750Z,98502.63
2023-02-11T21:03:57.628Z,98506.22
2023-02-11T21:06:26.960Z,98503.06
2023-02-11T21:08:53.991Z,98498.63
2023-02-11T21:11:20.722Z,98493.97
2023-02-11T21:13:48.548Z,98484.69
2023-02-11T21:16:20.335Z,98487.13
2023-02-11T21:18:47.822Z,98492.94
2023-02-11T21:21:14.590Z,98502.56
2023-02-11T21:23:41.261Z,98507.16
2023-02-11T21:26:08.350Z,98507.00
2023-02-11T21:28:35.678Z,98500.53
2023-02-11T21:31:03.280Z,98503.75
2023-02-11T21:33:32.105Z,98507.78
2023-02-11T21:36:01.162Z,98510.13
2023-02-11T21:38:27.859Z,98520.09
2023-02-11T21:40:54.651Z,98523.88
2023-02-11T21:43:22.303Z,98521.44
2023-02-11T21:45:50.921Z,98534.13
2023-02-11T21:48:18.398Z,98530.72
2023-02-11T21:50:47.237Z,98527.66
2023-02-11T21:53:14.095Z,98535.16
2023-02-11T21:55:41.002Z,98531.94
2023-02-11T21:58:07.756Z,98537.09
2023-02-11T22:00:34.237Z,98534.91
2023-02-11T22:03:00.840Z,98541.72
2023-02-11T22:05:27.311Z,98547.56
2023-02-11T22:07:53.827Z,98546.59
2023-02-11T22:10:20.575Z,98548.34
2023-02-11T22:12:47.137Z,98554.31
2023-02-11T22:15:13.651Z,98542.25
2023-02-11T22:17:40.419Z,98548.34
2023-02-11T22:20:07.934Z,98549.41
2023-02-11T22:22:35.239Z,98544.94
2023-02-11T22:25:02.241Z,98545.72
2023-02-11T22:27:28.663Z,98549.84
2023-02-11T22:29:55.130Z,98538.22
2023-02-11T22:32:21.541Z,98530.34
2023-02-11T22:34:47.950Z,98535.41
2023-02-11T22:37:14.986Z,98538.63
2023-02-11T22:39:42.567Z,98545.97
2023-02-11T22:42:09.204Z,98538.88
2023-02-11T22:44:37.241Z,98543.53
2023-02-11T22:47:03.796Z,98546.13
2023-02-11T22:49:32.380Z,98539.00
2023-02-11T22:51:59.361Z,98547.91
2023-02-11T22:54:25.940Z,98546.84
2023-02-11T22:56:52.518Z,98543.06
2023-02-11T22:59:19.533Z,98546.66
2023-02-11T23:01:46.486Z,98543.34
2023-02-11T23:04:15.554Z,98537.72
2023-02-11T23:06:42.092Z,98547.38
2023-02-11T23:09:10.290Z,98548.59
2023-02-11T23:11:36.703Z,98555.50
2023-02-11T23:14:03.759Z,98544.47
2023-02-11T23:16:32.922Z,98542.56
2023-02-11T23:19:01.442Z,98549.19
2023-02-11T23:21:31.373Z,98547.97
2023-02-11T23:24:04.203Z,98552.44
2023-02-11T23:26:31.003Z,98561.97
2023-02-11T23:28:58.569Z,98562.94
2023-02-11T23:31:28.053Z,98557.59
2023-02-11T23:33:54.935Z,98555.84
2023-02-11T23:36:22.131Z,98565.09
2023-02-11T23:38:48.830Z,98560.03
2023-02-11T23:41:16.100Z,98555.22
2023-02-11T23:43:42.634Z,98561.94
2023-02-11T23:46:09.634Z,98564.63
2023-02-11T23:48:37.478Z,98553.44
2023-02-11T23:51:04.153Z,98556.41
2023-02-11T23:53:30.558Z,98560.28
2023-02-11T23:55:57.187Z,98561.47
2023-02-11T23:58:23.625Z,98560.41
